Time;durP1;ratioP1;P1;durP2;ratioP2;P2;SDS_P1;SDS_P2;PMS_P1;PMS_P2;Temp;Humidity;BMP_temperature;BMP_pressure;BME280_temperature;BME280_humidity;BME280_pressure;Samples;Min_cycle;Max_cycle;Signal;HPM_P1;HPM_P2
2022/07/24 00:01:59;;;;;;;3.40;3.10;;;;;;;;;;5032308;28;20195;-64
2022/07/24 00:04:29;;;;;;;3.37;3.07;;;;;;;;;;5043000;28;20230;-65
2022/07/24 00:07:04;;;;;;;3.40;2.93;;;;;;;;;;5045903;28;20209;-64
2022/07/24 00:09:37;;;;;;;3.47;3.17;;;;;;;;;;5050540;28;20625;-64
2022/07/24 00:12:09;;;;;;;4.13;3.23;;;;;;;;;;5053661;28;20195;-65
2022/07/24 00:14:43;;;;;;;3.10;2.90;;;;;;;;;;5050318;28;20202;-64
2022/07/24 00:17:11;;;;;;;3.30;3.00;;;;;;;;;;5055103;28;20221;-64
2022/07/24 00:19:43;;;;;;;3.30;3.00;;;;;;;;;;5062142;28;20193;-64
2022/07/24 00:22:16;;;;;;;3.60;3.00;;;;;;;;;;5043183;28;20221;-64
2022/07/24 00:24:48;;;;;;;3.20;2.90;;;;;;;;;;5031487;28;20187;-65
2022/07/24 00:27:20;;;;;;;3.53;3.00;;;;;;;;;;5059360;28;20647;-65
2022/07/24 00:29:50;;;;;;;3.17;2.97;;;;;;;;;;5049861;28;20199;-64
2022/07/24 00:32:43;;;;;;;3.50;3.20;;;;;;;;;;5051788;28;20205;-64
2022/07/24 00:35:13;;;;;;;3.07;2.77;;;;;;;;;;5049717;28;20252;-65
2022/07/24 00:37:50;;;;;;;3.60;3.10;;;;;;;;;;5048471;28;20203;-65
2022/07/24 00:40:24;;;;;;;2.93;2.73;;;;;;;;;;5049151;28;20206;-65
2022/07/24 00:43:02;;;;;;;3.10;2.90;;;;;;;;;;5056003;28;20202;-64
2022/07/24 00:45:36;;;;;;;3.13;2.93;;;;;;;;;;5028634;28;20670;-64
2022/07/24 00:48:09;;;;;;;3.40;3.13;;;;;;;;;;5051154;28;20247;-64
2022/07/24 00:50:41;;;;;;;3.37;3.07;;;;;;;;;;5045690;28;20708;-64
2022/07/24 00:53:13;;;;;;;3.00;2.77;;;;;;;;;;5038929;28;20234;-64
2022/07/24 00:55:46;;;;;;;3.77;3.33;;;;;;;;;;5027893;28;20231;-64
2022/07/24 00:58:17;;;;;;;3.17;2.97;;;;;;;;;;5025019;28;20247;-64
2022/07/24 01:00:47;;;;;;;4.10;3.40;;;;;;;;;;5022078;28;20199;-65
2022/07/24 01:03:18;;;;;;;3.33;3.00;;;;;;;;;;5027790;28;20230;-65
2022/07/24 01:05:51;;;;;;;2.87;2.67;;;;;;;;;;5028337;28;20207;-64
2022/07/24 01:08:25;;;;;;;3.13;2.93;;;;;;;;;;5031182;28;20178;-64
2022/07/24 01:10:59;;;;;;;3.37;2.97;;;;;;;;;;5032741;28;20198;-65
2022/07/24 01:13:32;;;;;;;3.10;2.80;;;;;;;;;;5027899;28;20640;-65
2022/07/24 01:16:15;;;;;;;3.80;3.07;;;;;;;;;;5029324;28;20297;-64
2022/07/24 01:18:53;;;;;;;3.40;2.90;;;;;;;;;;5032601;28;20271;-65
2022/07/24 01:21:25;;;;;;;3.00;2.80;;;;;;;;;;5014743;28;20538;-65
2022/07/24 01:23:57;;;;;;;3.07;2.87;;;;;;;;;;5031591;28;20198;-65
2022/07/24 01:26:28;;;;;;;3.10;2.63;;;;;;;;;;5025920;28;20214;-64
2022/07/24 01:28:59;;;;;;;3.90;2.83;;;;;;;;;;5038268;28;20199;-64
2022/07/24 01:31:31;;;;;;;4.30;2.70;;;;;;;;;;5025143;28;20719;-64
2022/07/24 01:33:59;;;;;;;3.07;2.77;;;;;;;;;;5027439;28;20656;-64
2022/07/24 01:36:31;;;;;;;2.97;2.73;;;;;;;;;;5026966;28;20223;-64
2022/07/24 01:39:09;;;;;;;3.77;2.83;;;;;;;;;;5031028;28;20195;-64
2022/07/24 01:41:39;;;;;;;3.20;2.90;;;;;;;;;;5033907;28;20202;-64
2022/07/24 01:44:09;;;;;;;2.70;2.50;;;;;;;;;;5036587;28;20191;-65
2022/07/24 01:46:53;;;;;;;3.13;2.83;;;;;;;;;;5037590;28;20194;-64
2022/07/24 01:49:25;;;;;;;2.90;2.70;;;;;;;;;;5031149;28;20659;-64
2022/07/24 01:51:57;;;;;;;2.90;2.70;;;;;;;;;;5027267;28;20199;-64
2022/07/24 01:54:28;;;;;;;4.23;3.40;;;;;;;;;;5029415;28;20543;-64
2022/07/24 01:57:00;;;;;;;3.17;2.90;;;;;;;;;;5044459;28;20299;-64
2022/07/24 01:59:37;;;;;;;3.57;2.93;;;;;;;;;;5046945;28;20190;-65
2022/07/24 02:02:08;;;;;;;3.17;2.87;;;;;;;;;;5051616;28;20791;-64
2022/07/24 02:04:39;;;;;;;3.47;3.17;;;;;;;;;;5048740;28;20225;-64
2022/07/24 02:07:11;;;;;;;3.50;3.20;;;;;;;;;;5046242;28;20201;-65
2022/07/24 02:09:42;;;;;;;2.90;2.70;;;;;;;;;;5049226;28;20213;-65
2022/07/24 02:12:14;;;;;;;2.93;2.73;;;;;;;;;;5048751;28;20221;-64
2022/07/24 02:14:46;;;;;;;2.80;2.60;;;;;;;;;;5042859;28;20760;-65
2022/07/24 02:17:18;;;;;;;3.13;2.87;;;;;;;;;;5026689;28;20225;-64
2022/07/24 02:19:49;;;;;;;2.80;2.60;;;;;;;;;;5049115;28;20726;-64
2022/07/24 02:22:23;;;;;;;3.07;2.87;;;;;;;;;;5049726;28;20225;-64
2022/07/24 02:24:56;;;;;;;3.03;2.83;;;;;;;;;;5048458;28;20194;-63
2022/07/24 02:27:30;;;;;;;3.27;3.00;;;;;;;;;;5046073;28;20213;-65
2022/07/24 02:29:59;;;;;;;2.97;2.77;;;;;;;;;;5030553;28;20217;-65
2022/07/24 02:32:34;;;;;;;2.80;2.60;;;;;;;;;;5039913;28;20293;-65
2022/07/24 02:35:06;;;;;;;2.93;2.73;;;;;;;;;;5048410;28;20207;-65
2022/07/24 02:37:39;;;;;;;3.17;2.87;;;;;;;;;;5055686;28;20280;-65
2022/07/24 02:40:11;;;;;;;2.80;2.60;;;;;;;;;;5041190;28;20269;-65
2022/07/24 02:42:56;;;;;;;3.27;2.97;;;;;;;;;;5031131;28;20229;-64
2022/07/24 02:45:27;;;;;;;2.83;2.60;;;;;;;;;;5042712;28;20647;-65
2022/07/24 02:47:57;;;;;;;2.87;2.67;;;;;;;;;;5045838;28;20218;-64
2022/07/24 02:50:33;;;;;;;2.90;2.70;;;;;;;;;;5046399;28;20195;-64
2022/07/24 02:53:04;;;;;;;4.37;2.70;;;;;;;;;;5046303;28;20212;-64
2022/07/24 02:55:34;;;;;;;3.30;3.00;;;;;;;;;;5049448;28;20226;-65
2022/07/24 02:58:05;;;;;;;3.53;2.50;;;;;;;;;;5042731;28;20237;-64
2022/07/24 03:00:34;;;;;;;3.50;2.80;;;;;;;;;;5053105;28;20206;-64
2022/07/24 03:03:07;;;;;;;3.30;3.00;;;;;;;;;;5058663;28;20644;-65
2022/07/24 03:05:37;;;;;;;2.80;2.53;;;;;;;;;;5048393;28;20206;-64
2022/07/24 03:08:10;;;;;;;2.80;2.60;;;;;;;;;;5045746;28;20201;-65
2022/07/24 03:10:43;;;;;;;3.00;2.50;;;;;;;;;;5019565;28;20362;-64
2022/07/24 03:13:15;;;;;;;3.20;2.90;;;;;;;;;;5045886;28;20198;-65
2022/07/24 03:15:45;;;;;;;2.70;2.50;;;;;;;;;;5052258;28;20260;-65
2022/07/24 03:18:27;;;;;;;3.00;2.80;;;;;;;;;;5051695;28;20256;-64
2022/07/24 03:21:20;;;;;;;3.33;3.10;;;;;;;;;;5048836;28;20647;-64
2022/07/24 03:24:13;;;;;;;3.27;2.97;;;;;;;;;;5060425;28;20281;-65
2022/07/24 03:26:42;;;;;;;2.87;2.67;;;;;;;;;;5050804;28;21040;-65
2022/07/24 03:29:16;;;;;;;4.17;2.73;;;;;;;;;;5021467;28;20209;-65
2022/07/24 03:31:47;;;;;;;3.27;2.90;;;;;;;;;;5028855;28;20210;-65
2022/07/24 03:34:16;;;;;;;3.30;3.00;;;;;;;;;;5043789;28;20682;-64
2022/07/24 03:36:49;;;;;;;3.40;2.97;;;;;;;;;;5024947;28;20611;-65
2022/07/24 03:39:20;;;;;;;2.90;2.63;;;;;;;;;;5054222;28;20190;-65
2022/07/24 03:41:52;;;;;;;3.17;2.97;;;;;;;;;;5045403;28;20276;-64
2022/07/24 03:44:21;;;;;;;3.20;3.00;;;;;;;;;;5016681;28;20193;-64
2022/07/24 03:46:55;;;;;;;3.70;3.07;;;;;;;;;;5051843;28;20763;-64
2022/07/24 03:49:24;;;;;;;3.10;2.90;;;;;;;;;;5057259;28;20306;-64
2022/07/24 03:51:58;;;;;;;2.93;2.73;;;;;;;;;;5031094;28;20210;-64
2022/07/24 03:54:29;;;;;;;3.00;2.70;;;;;;;;;;5051848;28;20203;-64
2022/07/24 03:57:00;;;;;;;2.93;2.73;;;;;;;;;;5030311;28;20454;-64
2022/07/24 03:59:33;;;;;;;3.00;2.80;;;;;;;;;;5063110;28;20557;-64
2022/07/24 04:02:03;;;;;;;3.13;2.93;;;;;;;;;;5050634;28;20229;-64
2022/07/24 04:04:36;;;;;;;3.33;3.03;;;;;;;;;;5054855;28;20185;-64
2022/07/24 04:07:08;;;;;;;2.90;2.70;;;;;;;;;;5064331;28;20209;-64
2022/07/24 04:09:40;;;;;;;3.23;2.93;;;;;;;;;;5047383;28;20244;-64
2022/07/24 04:12:13;;;;;;;3.13;2.80;;;;;;;;;;5037101;28;20298;-64
2022/07/24 04:14:43;;;;;;;3.23;2.93;;;;;;;;;;5056901;28;20213;-65
2022/07/24 04:17:15;;;;;;;3.60;2.93;;;;;;;;;;5050148;28;20217;-64
2022/07/24 04:19:43;;;;;;;3.30;3.10;;;;;;;;;;5049924;28;20193;-64
2022/07/24 04:22:17;;;;;;;3.27;2.97;;;;;;;;;;5047200;28;20705;-65
2022/07/24 04:24:50;;;;;;;3.40;3.00;;;;;;;;;;5055621;28;20182;-64
2022/07/24 04:27:18;;;;;;;3.57;3.27;;;;;;;;;;5050844;28;20217;-64
2022/07/24 04:29:50;;;;;;;2.90;2.70;;;;;;;;;;5059399;28;20332;-64
2022/07/24 04:32:46;;;;;;;3.13;2.93;;;;;;;;;;5045121;28;20298;-64
2022/07/24 04:35:15;;;;;;;2.97;2.77;;;;;;;;;;5035076;28;20209;-64
2022/07/24 04:37:48;;;;;;;3.20;3.00;;;;;;;;;;5056852;28;20218;-64
2022/07/24 04:40:19;;;;;;;2.83;2.63;;;;;;;;;;5048370;28;20211;-64
2022/07/24 04:42:47;;;;;;;2.93;2.73;;;;;;;;;;5036536;28;20186;-64
2022/07/24 04:45:32;;;;;;;2.90;2.70;;;;;;;;;;5045912;28;20300;-65
2022/07/24 04:48:03;;;;;;;3.10;2.90;;;;;;;;;;5016310;28;20195;-64
2022/07/24 04:50:36;;;;;;;3.13;2.93;;;;;;;;;;5014680;28;20205;-64
2022/07/24 04:53:18;;;;;;;3.10;2.80;;;;;;;;;;5031966;28;20210;-64
2022/07/24 04:55:47;;;;;;;3.27;2.87;;;;;;;;;;5050797;28;20241;-64
2022/07/24 04:58:23;;;;;;;3.13;2.93;;;;;;;;;;5045481;28;20238;-64
2022/07/24 05:00:53;;;;;;;3.80;3.10;;;;;;;;;;5045671;28;20222;-64
2022/07/24 05:03:21;;;;;;;3.00;2.80;;;;;;;;;;5035922;28;20325;-64
2022/07/24 05:05:51;;;;;;;3.00;2.70;;;;;;;;;;5054048;28;20533;-64
2022/07/24 05:08:23;;;;;;;3.10;2.80;;;;;;;;;;5034146;28;20194;-64
2022/07/24 05:10:56;;;;;;;3.13;2.93;;;;;;;;;;5032314;28;20203;-65
2022/07/24 05:13:28;;;;;;;2.93;2.70;;;;;;;;;;5047334;28;20202;-64
2022/07/24 05:15:57;;;;;;;3.53;3.20;;;;;;;;;;5033624;28;20321;-65
2022/07/24 05:18:29;;;;;;;4.40;3.10;;;;;;;;;;5048244;28;20534;-64
2022/07/24 05:20:58;;;;;;;2.80;2.60;;;;;;;;;;5046030;28;20198;-65
2022/07/24 05:23:28;;;;;;;3.23;2.93;;;;;;;;;;5048425;28;20209;-64
2022/07/24 05:26:01;;;;;;;3.33;3.03;;;;;;;;;;5028203;28;20209;-64
2022/07/24 05:28:31;;;;;;;2.97;2.77;;;;;;;;;;4984273;28;20198;-64
2022/07/24 05:31:03;;;;;;;3.10;2.90;;;;;;;;;;5030731;28;20237;-65
2022/07/24 05:33:41;;;;;;;3.67;3.07;;;;;;;;;;5050586;28;20261;-65
2022/07/24 05:36:12;;;;;;;2.73;2.53;;;;;;;;;;5052172;28;20671;-64
2022/07/24 05:38:43;;;;;;;3.30;3.10;;;;;;;;;;5049187;28;20214;-65
2022/07/24 05:41:15;;;;;;;3.40;3.10;;;;;;;;;;5056415;28;20296;-65
2022/07/24 05:43:46;;;;;;;3.33;3.03;;;;;;;;;;5047258;28;20198;-66
2022/07/24 05:46:18;;;;;;;2.97;2.77;;;;;;;;;;5042904;28;20899;-65
2022/07/24 05:48:50;;;;;;;2.97;2.77;;;;;;;;;;5048861;28;20248;-65
2022/07/24 05:51:22;;;;;;;4.73;2.90;;;;;;;;;;5053836;28;20202;-65
2022/07/24 05:53:54;;;;;;;4.07;3.33;;;;;;;;;;5048732;28;20632;-64
2022/07/24 05:56:26;;;;;;;3.20;2.90;;;;;;;;;;5039006;28;20261;-65
2022/07/24 05:58:58;;;;;;;3.43;2.97;;;;;;;;;;5023779;28;20225;-66
2022/07/24 06:01:34;;;;;;;8.17;3.60;;;;;;;;;;5017842;28;20193;-65
2022/07/24 06:04:20;;;;;;;6.77;4.30;;;;;;;;;;5048251;28;20191;-65
2022/07/24 06:06:51;;;;;;;6.10;3.80;;;;;;;;;;5046728;28;20202;-65
2022/07/24 06:09:20;;;;;;;7.43;3.50;;;;;;;;;;5051706;28;20714;-66
2022/07/24 06:11:50;;;;;;;5.17;4.00;;;;;;;;;;5050171;28;20230;-65
2022/07/24 06:14:24;;;;;;;4.60;3.80;;;;;;;;;;5019193;28;20198;-66
2022/07/24 06:16:53;;;;;;;5.70;3.27;;;;;;;;;;5049076;28;20205;-65
2022/07/24 06:19:27;;;;;;;3.60;3.20;;;;;;;;;;5030969;28;20554;-66
2022/07/24 06:21:59;;;;;;;3.90;3.60;;;;;;;;;;5042244;28;20640;-65
2022/07/24 06:24:30;;;;;;;4.93;3.97;;;;;;;;;;5050605;28;20200;-65
2022/07/24 06:27:01;;;;;;;4.20;3.20;;;;;;;;;;5036097;28;20753;-64
2022/07/24 06:29:42;;;;;;;5.33;3.40;;;;;;;;;;5044060;28;20185;-65
2022/07/24 06:32:21;;;;;;;6.10;4.10;;;;;;;;;;5047668;28;20198;-64
2022/07/24 06:34:52;;;;;;;4.47;3.70;;;;;;;;;;5043370;28;20548;-65
2022/07/24 06:37:27;;;;;;;3.73;3.43;;;;;;;;;;5048210;28;20236;-65
2022/07/24 06:40:00;;;;;;;5.20;3.60;;;;;;;;;;5046252;28;20701;-65
2022/07/24 06:42:40;;;;;;;3.83;3.50;;;;;;;;;;5042723;28;20197;-65
2022/07/24 06:45:11;;;;;;;4.00;3.50;;;;;;;;;;5037578;28;20222;-65
2022/07/24 06:47:40;;;;;;;4.40;4.00;;;;;;;;;;5002238;28;20199;-65
2022/07/24 06:50:10;;;;;;;4.20;3.77;;;;;;;;;;5052296;28;20268;-65
2022/07/24 06:52:43;;;;;;;4.33;3.90;;;;;;;;;;5045394;28;20201;-65
2022/07/24 06:55:14;;;;;;;5.60;3.73;;;;;;;;;;5047315;28;20531;-65
2022/07/24 06:57:43;;;;;;;4.47;3.90;;;;;;;;;;5021931;28;20245;-65
2022/07/24 07:00:15;;;;;;;4.27;3.87;;;;;;;;;;5026529;28;20195;-64
2022/07/24 07:02:49;;;;;;;5.30;3.77;;;;;;;;;;5024619;28;20206;-64
2022/07/24 07:05:21;;;;;;;5.97;4.00;;;;;;;;;;5026243;28;20254;-64
2022/07/24 07:08:04;;;;;;;4.20;3.80;;;;;;;;;;5026023;28;20282;-64
2022/07/24 07:10:36;;;;;;;6.20;4.67;;;;;;;;;;5025766;28;20207;-64
2022/07/24 07:13:08;;;;;;;8.00;5.47;;;;;;;;;;5030718;28;20202;-66
2022/07/24 07:15:40;;;;;;;8.90;7.00;;;;;;;;;;5026593;28;20195;-66
2022/07/24 07:18:09;;;;;;;10.07;7.97;;;;;;;;;;5025462;28;20268;-66
2022/07/24 07:20:39;;;;;;;8.50;7.40;;;;;;;;;;5024315;28;20199;-66
2022/07/24 07:23:12;;;;;;;8.97;8.07;;;;;;;;;;5027693;28;20202;-66
2022/07/24 07:25:42;;;;;;;8.97;8.07;;;;;;;;;;5032103;28;20531;-67
2022/07/24 07:28:15;;;;;;;8.83;7.97;;;;;;;;;;5026168;28;20209;-67
2022/07/24 07:30:45;;;;;;;10.33;8.77;;;;;;;;;;5029571;28;20206;-65
2022/07/24 07:33:16;;;;;;;11.77;8.20;;;;;;;;;;5032475;28;20238;-65
2022/07/24 07:36:00;;;;;;;11.10;8.50;;;;;;;;;;5038513;28;20608;-67
2022/07/24 07:38:31;;;;;;;14.73;7.07;;;;;;;;;;5037745;28;20271;-67
2022/07/24 07:41:08;;;;;;;10.33;7.23;;;;;;;;;;5036177;28;20219;-67
2022/07/24 07:43:38;;;;;;;8.77;7.80;;;;;;;;;;5036908;28;20220;-67
2022/07/24 07:46:08;;;;;;;8.93;8.07;;;;;;;;;;5029637;28;20225;-65
2022/07/24 07:48:38;;;;;;;19.13;8.97;;;;;;;;;;5030887;28;20201;-66
2022/07/24 07:51:14;;;;;;;16.43;9.83;;;;;;;;;;5027488;28;20620;-66
2022/07/24 07:53:53;;;;;;;11.77;8.83;;;;;;;;;;5031556;28;20206;-66
2022/07/24 07:56:22;;;;;;;15.20;9.97;;;;;;;;;;5028954;28;20242;-67
2022/07/24 07:59:11;;;;;;;10.70;9.10;;;;;;;;;;5029755;28;20207;-67
2022/07/24 08:01:52;;;;;;;12.97;9.57;;;;;;;;;;5027376;28;20199;-66
2022/07/24 08:04:21;;;;;;;12.03;9.10;;;;;;;;;;5028514;28;20242;-66
2022/07/24 08:06:51;;;;;;;11.23;9.43;;;;;;;;;;5031441;28;20205;-66
2022/07/24 08:09:21;;;;;;;11.83;9.33;;;;;;;;;;5023809;28;20286;-67
2022/07/24 08:11:56;;;;;;;12.47;10.20;;;;;;;;;;5028413;28;20191;-67
2022/07/24 08:14:40;;;;;;;11.23;9.70;;;;;;;;;;5026334;28;20202;-67
2022/07/24 08:17:13;;;;;;;11.87;10.17;;;;;;;;;;5030863;28;20773;-67
2022/07/24 08:19:45;;;;;;;13.83;9.93;;;;;;;;;;5028299;28;20273;-67
2022/07/24 08:22:22;;;;;;;12.80;10.00;;;;;;;;;;5023899;28;20574;-67
2022/07/24 08:24:52;;;;;;;10.43;9.40;;;;;;;;;;5027783;28;20261;-66
2022/07/24 08:27:23;;;;;;;10.10;8.57;;;;;;;;;;5019018;28;20179;-66
2022/07/24 08:29:56;;;;;;;9.03;8.13;;;;;;;;;;5023207;28;20199;-67
2022/07/24 08:32:25;;;;;;;9.60;7.80;;;;;;;;;;5020713;28;20261;-67
2022/07/24 08:34:57;;;;;;;8.73;7.70;;;;;;;;;;5029229;28;20214;-67
2022/07/24 08:37:29;;;;;;;9.20;7.60;;;;;;;;;;5013146;28;20202;-65
2022/07/24 08:40:01;;;;;;;8.17;7.23;;;;;;;;;;5034715;28;20241;-65
2022/07/24 08:42:30;;;;;;;8.50;7.40;;;;;;;;;;5029919;28;20252;-65
2022/07/24 08:45:06;;;;;;;7.23;6.60;;;;;;;;;;5025842;28;20682;-65
2022/07/24 08:47:39;;;;;;;7.67;6.80;;;;;;;;;;5014626;28;20193;-67
2022/07/24 08:50:11;;;;;;;8.40;7.43;;;;;;;;;;5031975;28;20202;-67
2022/07/24 08:52:46;;;;;;;12.57;7.50;;;;;;;;;;5011380;28;20668;-66
2022/07/24 08:55:17;;;;;;;9.17;6.70;;;;;;;;;;5012884;28;20203;-66
2022/07/24 08:57:47;;;;;;;8.43;7.13;;;;;;;;;;5041612;28;20802;-66
2022/07/24 09:00:19;;;;;;;7.60;6.90;;;;;;;;;;5029714;28;20299;-65
2022/07/24 09:02:54;;;;;;;9.87;6.90;;;;;;;;;;5051485;28;20229;-65
2022/07/24 09:05:25;;;;;;;7.37;6.60;;;;;;;;;;5049980;28;20209;-65
2022/07/24 09:08:16;;;;;;;8.63;6.47;;;;;;;;;;5047917;28;20209;-66
2022/07/24 09:10:58;;;;;;;7.93;6.33;;;;;;;;;;5026194;28;20206;-66
2022/07/24 09:14:29;;;;;;;6.57;5.90;;;;;;;;;;5033689;28;20205;-65
2022/07/24 09:16:27;;;;;;;6.83;5.80;;;;;;;;;;5030815;28;20208;-66
2022/07/24 09:19:10;;;;;;;7.30;5.70;;;;;;;;;;5045859;28;20205;-67
2022/07/24 09:21:44;;;;;;;5.37;4.80;;;;;;;;;;5043262;28;20202;-67
2022/07/24 09:24:23;;;;;;;5.47;4.90;;;;;;;;;;5015556;28;20612;-67
2022/07/24 09:26:56;;;;;;;5.10;4.70;;;;;;;;;;5030425;28;20285;-65
2022/07/24 09:29:27;;;;;;;4.73;4.23;;;;;;;;;;5051065;28;20198;-65
2022/07/24 09:32:04;;;;;;;4.40;4.00;;;;;;;;;;5052433;28;20202;-66
2022/07/24 09:34:41;;;;;;;5.17;4.30;;;;;;;;;;5021009;28;20233;-65
2022/07/24 09:37:12;;;;;;;4.37;3.97;;;;;;;;;;5049602;28;20233;-65
2022/07/24 09:39:47;;;;;;;4.33;3.90;;;;;;;;;;5049869;28;20213;-65
2022/07/24 09:42:19;;;;;;;4.10;3.70;;;;;;;;;;5030681;28;21031;-66
2022/07/24 09:44:59;;;;;;;7.17;4.00;;;;;;;;;;5028626;28;20311;-65
2022/07/24 09:47:31;;;;;;;11.33;4.00;;;;;;;;;;5048406;28;20194;-62
2022/07/24 09:50:12;;;;;;;8.20;3.97;;;;;;;;;;5045431;28;20218;-65
2022/07/24 09:52:53;;;;;;;5.03;3.77;;;;;;;;;;5046631;28;20290;-65
2022/07/24 09:55:25;;;;;;;6.43;3.97;;;;;;;;;;5045553;28;20214;-65
2022/07/24 09:58:01;;;;;;;5.33;3.87;;;;;;;;;;5041759;28;20271;-65
2022/07/24 10:00:32;;;;;;;6.50;3.87;;;;;;;;;;5026387;28;20222;-65
2022/07/24 10:03:07;;;;;;;7.57;3.50;;;;;;;;;;5049269;28;20205;-65
2022/07/24 10:05:40;;;;;;;5.87;3.50;;;;;;;;;;5027160;28;20214;-65
2022/07/24 10:08:23;;;;;;;4.90;3.43;;;;;;;;;;5033152;28;20280;-64
2022/07/24 10:10:56;;;;;;;3.47;3.13;;;;;;;;;;5033729;28;20221;-64
2022/07/24 10:13:31;;;;;;;3.33;2.83;;;;;;;;;;5050055;28;20182;-64
2022/07/24 10:16:12;;;;;;;4.23;3.17;;;;;;;;;;5050460;28;20197;-65
2022/07/24 10:18:57;;;;;;;6.63;3.30;;;;;;;;;;5048979;28;21033;-65
2022/07/24 10:21:36;;;;;;;3.37;2.87;;;;;;;;;;5046054;28;20543;-65
2022/07/24 10:24:14;;;;;;;2.63;2.43;;;;;;;;;;5046718;28;20213;-65
2022/07/24 10:26:51;;;;;;;3.30;3.00;;;;;;;;;;5046005;28;20201;-64
2022/07/24 10:29:25;;;;;;;3.43;2.87;;;;;;;;;;5031622;28;20190;-65
2022/07/24 10:31:58;;;;;;;4.13;2.70;;;;;;;;;;5049292;28;20205;-64
2022/07/24 10:34:55;;;;;;;2.60;2.40;;;;;;;;;;5041880;28;20210;-65
2022/07/24 10:37:38;;;;;;;2.60;2.23;;;;;;;;;;5046489;28;20194;-65
2022/07/24 10:40:16;;;;;;;3.03;2.50;;;;;;;;;;5029258;28;20206;-64
2022/07/24 10:43:07;;;;;;;2.90;2.60;;;;;;;;;;5046727;28;20201;-65
2022/07/24 10:45:43;;;;;;;3.57;2.40;;;;;;;;;;5047078;28;20513;-66
2022/07/24 10:48:23;;;;;;;4.50;2.77;;;;;;;;;;5033566;28;20232;-66
2022/07/24 10:51:07;;;;;;;2.67;2.47;;;;;;;;;;5046231;28;20202;-65
2022/07/24 10:53:39;;;;;;;3.50;2.43;;;;;;;;;;5049386;28;20202;-65
2022/07/24 10:56:26;;;;;;;3.63;2.80;;;;;;;;;;5047505;28;20198;-65
2022/07/24 10:59:09;;;;;;;3.87;2.70;;;;;;;;;;5037097;28;20216;-64
2022/07/24 11:01:54;;;;;;;2.43;2.20;;;;;;;;;;5037694;28;20205;-65
2022/07/24 11:04:30;;;;;;;6.27;2.30;;;;;;;;;;5026052;28;20217;-65
2022/07/24 11:07:11;;;;;;;3.47;2.60;;;;;;;;;;4991986;28;20228;-65
2022/07/24 11:10:15;;;;;;;2.27;2.10;;;;;;;;;;5019755;28;20636;-65
2022/07/24 11:12:47;;;;;;;2.47;2.27;;;;;;;;;;4942528;28;20217;-65
2022/07/24 11:18:16;;;;;;;3.03;2.40;;;;;;;;;;5026756;28;20635;-65
2022/07/24 11:20:49;;;;;;;3.10;2.70;;;;;;;;;;5020069;28;20262;-64
2022/07/24 11:23:21;;;;;;;2.13;1.90;;;;;;;;;;5020669;28;20586;-65
2022/07/24 11:26:21;;;;;;;2.80;2.20;;;;;;;;;;5009545;28;20201;-65
2022/07/24 11:29:09;;;;;;;2.23;2.10;;;;;;;;;;5023676;28;20265;-65
2022/07/24 11:31:44;;;;;;;2.67;2.30;;;;;;;;;;5024657;28;20222;-65
2022/07/24 11:34:16;;;;;;;2.30;2.10;;;;;;;;;;5016535;28;20210;-65
2022/07/24 11:36:48;;;;;;;2.33;2.13;;;;;;;;;;5025847;28;20901;-65
2022/07/24 11:39:20;;;;;;;2.50;2.27;;;;;;;;;;5008801;28;20231;-65
2022/07/24 11:41:56;;;;;;;2.53;2.33;;;;;;;;;;4991181;28;20207;-65
2022/07/24 11:44:30;;;;;;;2.20;2.10;;;;;;;;;;5003147;28;20199;-64
2022/07/24 11:47:13;;;;;;;2.40;2.20;;;;;;;;;;5026465;28;20257;-65
2022/07/24 11:49:45;;;;;;;2.67;2.47;;;;;;;;;;5025172;28;20196;-65
2022/07/24 11:52:21;;;;;;;2.63;2.43;;;;;;;;;;5011390;28;20194;-64
2022/07/24 11:55:09;;;;;;;2.10;2.00;;;;;;;;;;5012987;28;20223;-64
2022/07/24 11:57:44;;;;;;;2.60;2.40;;;;;;;;;;5010057;28;20394;-64
2022/07/24 12:00:35;;;;;;;2.20;1.83;;;;;;;;;;5020107;28;20268;-65
2022/07/24 12:03:06;;;;;;;2.63;2.33;;;;;;;;;;5020650;28;20246;-64
2022/07/24 12:05:51;;;;;;;2.00;1.80;;;;;;;;;;5020785;28;20225;-64
2022/07/24 12:08:29;;;;;;;2.97;2.40;;;;;;;;;;5012586;28;20215;-64
2022/07/24 12:11:01;;;;;;;2.20;2.00;;;;;;;;;;5030274;28;20191;-65
2022/07/24 12:13:30;;;;;;;2.00;1.90;;;;;;;;;;5024878;28;20205;-66
2022/07/24 12:16:01;;;;;;;2.00;1.90;;;;;;;;;;5026055;28;20199;-64
2022/07/24 12:18:30;;;;;;;2.00;1.80;;;;;;;;;;5020362;28;20703;-64
2022/07/24 12:21:03;;;;;;;1.90;1.80;;;;;;;;;;5030860;28;20226;-65
2022/07/24 12:23:37;;;;;;;2.00;1.90;;;;;;;;;;5026037;28;20191;-65
2022/07/24 12:26:09;;;;;;;2.30;2.03;;;;;;;;;;5025212;28;20206;-65
2022/07/24 12:28:40;;;;;;;2.00;1.90;;;;;;;;;;5023598;28;20288;-65
2022/07/24 12:31:15;;;;;;;2.50;2.20;;;;;;;;;;5024465;28;20235;-65
2022/07/24 12:33:56;;;;;;;2.60;1.90;;;;;;;;;;5016037;28;20215;-65
2022/07/24 12:36:28;;;;;;;2.07;1.93;;;;;;;;;;5019081;28;20219;-65
2022/07/24 12:38:56;;;;;;;1.77;1.67;;;;;;;;;;5024366;28;20218;-65
2022/07/24 12:41:30;;;;;;;1.93;1.83;;;;;;;;;;5020269;28;20273;-65
2022/07/24 12:44:02;;;;;;;1.90;1.80;;;;;;;;;;5022338;28;20204;-65
2022/07/24 12:46:42;;;;;;;1.90;1.80;;;;;;;;;;5018568;28;20822;-66
2022/07/24 12:49:17;;;;;;;2.07;1.87;;;;;;;;;;5018043;28;20194;-65
2022/07/24 12:51:51;;;;;;;2.57;1.60;;;;;;;;;;5019680;28;20208;-65
2022/07/24 12:54:30;;;;;;;2.87;2.00;;;;;;;;;;5025120;28;20530;-64
2022/07/24 12:57:09;;;;;;;1.97;1.77;;;;;;;;;;5022256;28;20345;-65
2022/07/24 12:59:49;;;;;;;2.00;1.90;;;;;;;;;;5039209;28;20210;-65
2022/07/24 13:02:24;;;;;;;1.83;1.73;;;;;;;;;;5041519;28;20271;-66
2022/07/24 13:04:56;;;;;;;1.87;1.77;;;;;;;;;;5030384;28;20197;-65
2022/07/24 13:07:29;;;;;;;1.77;1.67;;;;;;;;;;5049035;28;20581;-65
2022/07/24 13:09:59;;;;;;;1.90;1.80;;;;;;;;;;5044677;28;20225;-65
2022/07/24 13:12:29;;;;;;;1.90;1.80;;;;;;;;;;5050220;28;20293;-64
2022/07/24 13:14:58;;;;;;;2.03;1.83;;;;;;;;;;5048246;28;20235;-65
2022/07/24 13:17:27;;;;;;;2.67;2.10;;;;;;;;;;5042456;28;20697;-65
2022/07/24 13:20:01;;;;;;;1.77;1.63;;;;;;;;;;5046742;28;20258;-65
2022/07/24 13:22:33;;;;;;;1.80;1.70;;;;;;;;;;5039095;28;20198;-66
2022/07/24 13:25:08;;;;;;;2.10;1.70;;;;;;;;;;5048499;28;20198;-65
2022/07/24 13:27:41;;;;;;;1.77;1.67;;;;;;;;;;5050561;28;20680;-65
2022/07/24 13:30:34;;;;;;;2.07;1.90;;;;;;;;;;5056397;28;20602;-64
2022/07/24 13:33:06;;;;;;;1.87;1.77;;;;;;;;;;5042766;28;20620;-65
2022/07/24 13:35:40;;;;;;;1.93;1.77;;;;;;;;;;5044441;28;20195;-65
2022/07/24 13:38:14;;;;;;;2.00;1.90;;;;;;;;;;5048150;28;20542;-65
2022/07/24 13:40:45;;;;;;;2.40;2.20;;;;;;;;;;5047108;28;20651;-66
2022/07/24 13:43:15;;;;;;;2.37;2.17;;;;;;;;;;5056596;28;20220;-66
2022/07/24 13:45:52;;;;;;;2.63;2.43;;;;;;;;;;5052340;28;20217;-64
2022/07/24 13:48:20;;;;;;;2.33;2.13;;;;;;;;;;5055129;28;20225;-65
2022/07/24 13:50:50;;;;;;;1.70;1.60;;;;;;;;;;5049203;28;20202;-65
2022/07/24 13:53:24;;;;;;;2.07;1.97;;;;;;;;;;5058032;28;20263;-65
2022/07/24 13:55:53;;;;;;;2.17;1.80;;;;;;;;;;5033867;28;20202;-66
2022/07/24 13:58:20;;;;;;;2.00;1.90;;;;;;;;;;5029441;28;20320;-66
2022/07/24 14:00:50;;;;;;;2.47;2.27;;;;;;;;;;5029761;28;20223;-64
2022/07/24 14:03:33;;;;;;;2.33;2.17;;;;;;;;;;5027354;28;20195;-65
2022/07/24 14:06:11;;;;;;;3.20;2.07;;;;;;;;;;5028277;28;20297;-65
2022/07/24 14:08:48;;;;;;;3.10;2.13;;;;;;;;;;5020845;28;20223;-64
2022/07/24 14:11:18;;;;;;;2.37;2.20;;;;;;;;;;5027120;28;20694;-65
2022/07/24 14:13:53;;;;;;;2.47;2.27;;;;;;;;;;5026279;28;20194;-65
2022/07/24 14:16:23;;;;;;;2.30;2.10;;;;;;;;;;5040280;28;20214;-65
2022/07/24 14:18:56;;;;;;;2.13;2.00;;;;;;;;;;5032440;28;20296;-66
2022/07/24 14:21:25;;;;;;;2.50;2.30;;;;;;;;;;5028511;28;20254;-65
2022/07/24 14:23:57;;;;;;;2.40;2.20;;;;;;;;;;5027329;28;20242;-64
2022/07/24 14:26:24;;;;;;;2.10;1.97;;;;;;;;;;5026375;28;20207;-64
2022/07/24 14:28:53;;;;;;;2.50;2.30;;;;;;;;;;5032615;28;20225;-65
2022/07/24 14:31:25;;;;;;;2.17;2.07;;;;;;;;;;5023191;28;20707;-65
2022/07/24 14:34:00;;;;;;;2.57;2.37;;;;;;;;;;5031169;28;20219;-65
2022/07/24 14:36:35;;;;;;;2.50;2.30;;;;;;;;;;5026610;28;20628;-65
2022/07/24 14:39:06;;;;;;;2.17;1.97;;;;;;;;;;5030575;28;20199;-66
2022/07/24 14:41:34;;;;;;;2.20;2.00;;;;;;;;;;5032503;28;20599;-65
2022/07/24 14:44:11;;;;;;;2.70;2.50;;;;;;;;;;5032581;28;20221;-65
2022/07/24 14:46:43;;;;;;;1.97;1.80;;;;;;;;;;5031030;28;20214;-65
2022/07/24 14:49:18;;;;;;;2.27;2.00;;;;;;;;;;5025014;28;20195;-65
2022/07/24 14:51:51;;;;;;;2.60;2.23;;;;;;;;;;5026510;28;20282;-65
2022/07/24 14:54:20;;;;;;;2.37;2.17;;;;;;;;;;5035126;28;20229;-65
2022/07/24 14:56:50;;;;;;;2.27;2.07;;;;;;;;;;5024615;28;20898;-65
2022/07/24 14:59:26;;;;;;;1.83;1.73;;;;;;;;;;5035597;28;20705;-65
2022/07/24 15:01:59;;;;;;;1.97;1.87;;;;;;;;;;5048732;28;20201;-65
2022/07/24 15:04:30;;;;;;;2.40;1.87;;;;;;;;;;5043271;28;20210;-65
2022/07/24 15:07:02;;;;;;;2.23;1.97;;;;;;;;;;5050255;28;20639;-65
2022/07/24 15:09:34;;;;;;;2.30;2.10;;;;;;;;;;5025420;28;20209;-65
2022/07/24 15:12:05;;;;;;;2.03;1.93;;;;;;;;;;5045222;28;20205;-65
2022/07/24 15:14:36;;;;;;;2.10;2.00;;;;;;;;;;5026188;28;20209;-65
2022/07/24 15:17:03;;;;;;;1.97;1.83;;;;;;;;;;5047352;28;20225;-64
2022/07/24 15:19:34;;;;;;;1.90;1.77;;;;;;;;;;5046045;28;20217;-65
2022/07/24 15:22:03;;;;;;;1.93;1.83;;;;;;;;;;5044436;28;20210;-65
2022/07/24 15:24:47;;;;;;;2.07;1.90;;;;;;;;;;5042599;28;20264;-65
2022/07/24 15:27:22;;;;;;;2.50;2.00;;;;;;;;;;5050568;28;20191;-65